createdAt,value
2022-09-20T00:01:13.100Z,1.57
2022-09-20T00:03:45.258Z,1.40
2022-09-20T00:06:18.425Z,1.53
2022-09-20T00:08:46.632Z,1.43
2022-09-20T00:11:19.504Z,1.63
2022-09-20T00:13:48.485Z,2.10
2022-09-20T00:16:21.931Z,1.80
2022-09-20T00:18:53.209Z,2.10
2022-09-20T00:21:23.401Z,2.10
2022-09-20T00:23:51.260Z,2.00
2022-09-20T00:26:18.432Z,1.80
2022-09-20T00:28:47.047Z,1.50
2022-09-20T00:31:14.893Z,1.73
2022-09-20T00:34:00.551Z,2.80
2022-09-20T00:36:27.574Z,2.20
2022-09-20T00:38:59.215Z,1.43
2022-09-20T00:41:26.558Z,2.07
2022-09-20T00:43:54.091Z,2.27
2022-09-20T00:46:39.808Z,1.67
2022-09-20T00:49:14.332Z,2.60
2022-09-20T00:51:45.924Z,2.00
2022-09-20T00:54:20.345Z,2.30
2022-09-20T00:56:48.526Z,2.23
2022-09-20T00:59:22.767Z,2.60
2022-09-20T01:01:56.491Z,2.50
2022-09-20T01:04:27.115Z,2.30
2022-09-20T01:06:56.645Z,2.40
2022-09-20T01:09:23.389Z,2.37
2022-09-20T01:11:52.094Z,2.80
2022-09-20T01:14:20.157Z,3.17
2022-09-20T01:16:47.188Z,2.87
2022-09-20T01:19:26.898Z,2.47
2022-09-20T01:21:54.763Z,2.50
2022-09-20T01:24:29.903Z,2.40
2022-09-20T01:27:20.618Z,2.97
2022-09-20T01:29:56.318Z,2.50
2022-09-20T01:32:29.294Z,3.03
2022-09-20T01:35:00.095Z,3.33
2022-09-20T01:38:03.756Z,3.33
2022-09-20T01:40:42.791Z,3.03
2022-09-20T01:43:16.702Z,2.90
2022-09-20T01:45:49.461Z,3.67
2022-09-20T01:48:42.493Z,3.13
2022-09-20T01:51:30.440Z,2.90
2022-09-20T01:54:26.533Z,3.27
2022-09-20T01:56:59.466Z,2.67
2022-09-20T02:00:01.972Z,3.20
2022-09-20T02:02:59.915Z,3.07
2022-09-20T02:06:00.762Z,3.43
2022-09-20T02:08:57.664Z,3.20
2022-09-20T02:11:41.180Z,3.33
2022-09-20T02:14:37.192Z,3.60
2022-09-20T02:17:14.649Z,3.63
2022-09-20T02:19:47.288Z,4.07
2022-09-20T02:22:32.833Z,3.73
2022-09-20T02:25:15.961Z,3.60
2022-09-20T02:27:53.741Z,3.97
2022-09-20T02:30:23.505Z,4.03
2022-09-20T02:33:17.728Z,3.50
2022-09-20T02:35:47.428Z,3.60
2022-09-20T02:38:49.316Z,3.70
2022-09-20T02:41:19.265Z,3.97
2022-09-20T02:44:02.141Z,3.63
2022-09-20T02:46:45.215Z,3.70
2022-09-20T02:49:22.183Z,4.33
2022-09-20T02:52:03.993Z,3.83
2022-09-20T02:54:58.416Z,4.17
2022-09-20T02:58:02.166Z,3.40
2022-09-20T03:00:45.798Z,4.20
2022-09-20T03:03:59.738Z,3.93
2022-09-20T03:06:41.362Z,3.27
2022-09-20T03:09:27.376Z,3.97
2022-09-20T03:12:09.193Z,4.50
2022-09-20T03:14:37.453Z,3.77
2022-09-20T03:17:20.617Z,3.90
2022-09-20T03:20:04.118Z,3.90
2022-09-20T03:22:36.384Z,4.13
2022-09-20T03:25:21.699Z,3.60
2022-09-20T03:27:54.222Z,3.63
2022-09-20T03:30:56.282Z,3.40
2022-09-20T03:33:38.815Z,4.17
2022-09-20T03:36:16.553Z,3.93
2022-09-20T03:39:01.210Z,3.90
2022-09-20T03:41:46.420Z,4.00
2022-09-20T03:44:34.390Z,4.40
2022-09-20T03:47:36.726Z,3.23
2022-09-20T03:50:40.950Z,3.23
2022-09-20T03:53:28.941Z,3.17
2022-09-20T03:56:19.892Z,3.20
2022-09-20T03:58:58.250Z,3.17
2022-09-20T04:01:42.973Z,3.20
2022-09-20T04:04:23.287Z,2.87
2022-09-20T04:07:04.788Z,4.43
2022-09-20T04:09:55.574Z,2.53
2022-09-20T04:12:22.261Z,3.50
2022-09-20T04:15:27.343Z,3.60
2022-09-20T04:18:02.993Z,3.30
2022-09-20T04:21:00.612Z,3.07
2022-09-20T04:23:47.237Z,3.80
2022-09-20T04:26:19.293Z,2.40
2022-09-20T04:29:22.895Z,2.60
2022-09-20T04:32:10.347Z,2.67
2022-09-20T04:35:05.019Z,3.00
2022-09-20T04:37:35.355Z,2.57
2022-09-20T04:40:09.118Z,2.80
2022-09-20T04:43:13.470Z,2.23
2022-09-20T04:45:43.244Z,2.80
2022-09-20T04:48:31.463Z,2.33
2022-09-20T04:51:10.075Z,2.80
2022-09-20T04:53:52.365Z,2.70
2022-09-20T04:56:50.128Z,2.60
2022-09-20T05:00:05.346Z,2.40
2022-09-20T05:02:53.516Z,2.30
2022-09-20T05:05:32.138Z,2.33
2022-09-20T05:08:17.398Z,2.67
2022-09-20T05:11:09.707Z,2.50
2022-09-20T05:13:52.914Z,3.10
2022-09-20T05:16:48.484Z,3.37
2022-09-20T05:19:26.469Z,2.50
2022-09-20T05:22:32.465Z,2.60
2022-09-20T05:25:07.261Z,3.10
2022-09-20T05:27:45.038Z,3.30
2022-09-20T05:30:31.265Z,2.93
2022-09-20T05:33:14.033Z,3.60
2022-09-20T05:35:59.424Z,3.33
2022-09-20T05:38:50.090Z,3.77
2022-09-20T05:41:23.918Z,3.40
2022-09-20T05:44:11.623Z,3.10
2022-09-20T05:47:18.401Z,4.77
2022-09-20T05:50:24.484Z,3.90
2022-09-20T05:53:23.525Z,5.03
2022-09-20T05:56:20.757Z,4.37
2022-09-20T05:59:30.213Z,5.40
2022-09-20T06:02:21.584Z,7.13
2022-09-20T06:05:01.652Z,6.13
2022-09-20T06:07:31.353Z,5.90
2022-09-20T06:10:07.570Z,6.07
2022-09-20T06:12:43.730Z,6.07
2022-09-20T06:15:31.551Z,6.10
2022-09-20T06:18:04.088Z,6.23
2022-09-20T06:20:44.693Z,6.63
2022-09-20T06:23:12.058Z,6.20
2022-09-20T06:25:44.908Z,6.40
2022-09-20T06:28:21.268Z,6.73
2022-09-20T06:30:53.472Z,6.57
2022-09-20T06:33:28.896Z,7.00
2022-09-20T06:36:29.879Z,6.10
2022-09-20T06:39:17.704Z,7.07
2022-09-20T06:41:44.942Z,6.10
2022-09-20T06:44:11.606Z,5.67
2022-09-20T06:46:39.272Z,5.60
2022-09-20T06:49:09.695Z,5.97
2022-09-20T06:51:38.354Z,8.10
2022-09-20T06:54:08.957Z,6.57
2022-09-20T06:56:36.758Z,6.07
2022-09-20T06:59:08.596Z,5.97
2022-09-20T07:01:35.549Z,6.10
2022-09-20T07:04:03.196Z,6.60
2022-09-20T07:06:29.916Z,7.20
2022-09-20T07:08:56.652Z,6.10
2022-09-20T07:11:23.489Z,6.67
2022-09-20T07:13:55.084Z,5.50
2022-09-20T07:16:22.583Z,6.17
2022-09-20T07:18:49.979Z,6.07
2022-09-20T07:21:18.710Z,5.00
2022-09-20T07:23:45.996Z,6.00
2022-09-20T07:26:26.446Z,5.20
2022-09-20T07:28:53.655Z,5.23
2022-09-20T07:31:23.533Z,5.33
2022-09-20T07:33:50.522Z,4.83
2022-09-20T07:36:18.154Z,5.03
2022-09-20T07:38:50.239Z,4.63
2022-09-20T07:41:19.160Z,5.90
2022-09-20T07:43:46.804Z,4.33
2022-09-20T07:46:13.669Z,4.80
2022-09-20T07:48:41.337Z,3.63
2022-09-20T07:51:11.516Z,3.30
2022-09-20T07:53:39.173Z,3.13
2022-09-20T07:56:10.090Z,2.83
2022-09-20T07:58:37.520Z,2.70
2022-09-20T08:01:08.169Z,3.03
2022-09-20T08:03:35.646Z,2.83
2022-09-20T08:06:09.835Z,3.27
2022-09-20T08:08:38.854Z,3.33
2022-09-20T08:11:08.475Z,2.37
2022-09-20T08:16:32.216Z,3.03
2022-09-20T08:19:01.646Z,3.03
2022-09-20T08:21:33.229Z,2.07
2022-09-20T08:24:01.481Z,3.27
2022-09-20T08:26:31.048Z,2.90
2022-09-20T08:28:59.292Z,2.73
2022-09-20T08:31:28.368Z,2.20
2022-09-20T08:33:55.554Z,2.50
2022-09-20T08:36:24.610Z,2.33
2022-09-20T08:41:55.613Z,2.03
2022-09-20T08:44:36.188Z,1.83
2022-09-20T08:47:23.607Z,1.67
2022-09-20T08:49:56.929Z,1.50
2022-09-20T08:52:37.101Z,2.00
2022-09-20T08:55:27.983Z,1.93
2022-09-20T08:57:59.257Z,1.70
2022-09-20T09:00:34.376Z,1.70
2022-09-20T09:03:07.409Z,1.50
2022-09-20T09:05:58.148Z,1.60
2022-09-20T09:08:29.434Z,1.60
2022-09-20T09:10:59.986Z,1.60
2022-09-20T09:13:53.210Z,1.40
2022-09-20T09:16:25.722Z,1.50
2022-09-20T09:18:56.525Z,1.47
2022-09-20T09:21:26.028Z,1.63
2022-09-20T09:24:09.818Z,1.53
2022-09-20T09:26:41.948Z,1.47
2022-09-20T09:29:19.248Z,1.40
2022-09-20T09:31:48.456Z,2.43
2022-09-20T09:34:26.120Z,1.33
2022-09-20T09:36:54.391Z,1.80
2022-09-20T09:39:38.038Z,1.60
2022-09-20T09:42:31.679Z,1.37
2022-09-20T09:45:13.066Z,1.50
2022-09-20T09:47:39.711Z,1.80
2022-09-20T09:50:09.828Z,1.30
2022-09-20T09:52:36.887Z,1.60
2022-09-20T09:55:06.005Z,1.20
2022-09-20T09:58:01.151Z,1.30
2022-09-20T10:00:31.529Z,1.50
2022-09-20T10:03:22.428Z,1.20
2022-09-20T10:06:10.239Z,0.93
2022-09-20T10:09:09.961Z,1.07
2022-09-20T10:11:45.221Z,1.30
2022-09-20T10:14:31.576Z,1.17
2022-09-20T10:17:36.521Z,1.10
2022-09-20T10:20:37.584Z,0.80
2022-09-20T10:24:01.507Z,1.10
2022-09-20T10:26:43.823Z,1.40
2022-09-20T10:29:15.591Z,1.37
2022-09-20T10:31:52.376Z,1.53
2022-09-20T10:34:47.111Z,1.10
2022-09-20T10:37:40.392Z,1.40
2022-09-20T10:40:16.356Z,1.30
2022-09-20T10:43:08.333Z,1.80
2022-09-20T10:46:14.382Z,1.40
2022-09-20T10:48:52.967Z,2.50
2022-09-20T10:51:25.739Z,1.87
2022-09-20T10:54:11.004Z,1.23
2022-09-20T10:56:44.972Z,1.27
2022-09-20T10:59:23.455Z,1.00
2022-09-20T11:02:05.071Z,0.83
2022-09-20T11:04:53.498Z,1.13
2022-09-20T11:07:38.652Z,1.03
2022-09-20T11:10:16.567Z,0.97
2022-09-20T11:13:02.211Z,1.20
2022-09-20T11:15:46.982Z,1.17
2022-09-20T11:18:23.141Z,0.87
2022-09-20T11:21:03.302Z,1.10
2022-09-20T11:23:51.017Z,1.07
2022-09-20T11:26:39.910Z,0.87
2022-09-20T11:29:22.485Z,1.33
2022-09-20T11:31:53.167Z,1.00
2022-09-20T11:34:31.577Z,1.00
2022-09-20T11:37:01.613Z,1.20
2022-09-20T11:39:38.409Z,0.97
2022-09-20T11:42:06.536Z,0.87
2022-09-20T11:44:41.880Z,1.20
2022-09-20T11:47:52.762Z,0.87
2022-09-20T11:50:50.783Z,1.23
2022-09-20T11:53:20.639Z,0.90
2022-09-20T11:56:32.199Z,1.13
2022-09-20T11:59:01.457Z,1.20
2022-09-20T12:01:33.354Z,1.07
2022-09-20T12:04:31.338Z,2.63
2022-09-20T12:07:08.841Z,1.07
2022-09-20T12:09:42.352Z,1.40
2022-09-20T12:12:15.124Z,0.80
2022-09-20T12:14:42.498Z,0.90
2022-09-20T12:17:47.757Z,0.90
2022-09-20T12:20:35.258Z,1.40
2022-09-20T12:23:43.226Z,0.77
2022-09-20T12:26:20.311Z,0.83
2022-09-20T12:28:52.772Z,0.90
2022-09-20T12:31:22.523Z,0.60
2022-09-20T12:33:55.426Z,0.67
2022-09-20T12:36:22.178Z,1.40
2022-09-20T12:39:00.281Z,1.10
2022-09-20T12:41:29.046Z,1.07
2022-09-20T12:44:06.093Z,0.80
2022-09-20T12:46:50.740Z,0.80
2022-09-20T12:49:45.002Z,0.90
2022-09-20T12:53:02.503Z,0.60
2022-09-20T12:55:50.318Z,0.87
2022-09-20T12:58:52.129Z,0.80
2022-09-20T13:01:18.826Z,6.63
2022-09-20T13:03:48.179Z,0.60
2022-09-20T13:06:16.306Z,0.60
2022-09-20T13:08:51.651Z,0.70
2022-09-20T13:11:29.206Z,0.60
2022-09-20T13:14:23.610Z,0.80
2022-09-20T13:16:55.212Z,0.70
2022-09-20T13:19:30.099Z,0.70
2022-09-20T13:22:02.482Z,0.70
2022-09-20T13:24:38.962Z,0.63
2022-09-20T13:27:09.485Z,1.20
2022-09-20T13:29:42.228Z,1.17
2022-09-20T13:32:18.898Z,1.10
2022-09-20T13:34:46.978Z,0.80
2022-09-20T13:37:23.500Z,0.87
2022-09-20T13:39:54.915Z,0.80
2022-09-20T13:42:22.130Z,0.70
2022-09-20T13:44:49.306Z,1.77
2022-09-20T13:47:24.246Z,1.13
2022-09-20T13:49:51.061Z,1.30
2022-09-20T13:52:24.798Z,1.10
2022-09-20T13:54:51.543Z,1.07
2022-09-20T13:57:27.454Z,1.30
2022-09-20T13:59:55.673Z,0.83
2022-09-20T14:02:32.349Z,1.13
2022-09-20T14:05:05.317Z,1.20
2022-09-20T14:07:33.639Z,1.40
2022-09-20T14:10:01.219Z,1.43
2022-09-20T14:12:28.383Z,1.43
2022-09-20T14:14:57.196Z,0.90
2022-09-20T14:17:24.644Z,0.83
2022-09-20T14:19:55.307Z,0.60
2022-09-20T14:22:29.103Z,1.07
2022-09-20T14:25:19.282Z,0.70
2022-09-20T14:27:46.060Z,0.87
2022-09-20T14:30:36.256Z,0.93
2022-09-20T14:33:06.856Z,0.60
2022-09-20T14:35:34.227Z,0.80
2022-09-20T14:38:08.356Z,1.30
2022-09-20T14:40:44.337Z,0.97
2022-09-20T14:43:31.496Z,1.00
2022-09-20T14:46:01.888Z,1.10
2022-09-20T14:48:37.647Z,0.73
2022-09-20T14:51:18.769Z,1.70
2022-09-20T14:53:47.488Z,0.73
2022-09-20T14:56:26.959Z,1.10
2022-09-20T14:59:06.858Z,1.20
2022-09-20T15:01:35.900Z,1.13
2022-09-20T15:04:17.107Z,0.77
2022-09-20T15:06:43.896Z,0.70
2022-09-20T15:09:13.232Z,0.90
2022-09-20T15:11:40.903Z,1.00
2022-09-20T15:14:08.332Z,1.20
2022-09-20T15:16:35.450Z,1.00
2022-09-20T15:19:02.162Z,0.90
2022-09-20T15:21:28.872Z,1.00
2022-09-20T15:23:55.595Z,1.27
2022-09-20T15:26:22.436Z,0.90
2022-09-20T15:28:49.315Z,0.77
2022-09-20T15:31:17.197Z,0.70
2022-09-20T15:33:43.991Z,1.20
2022-09-20T15:36:10.999Z,1.10
2022-09-20T15:38:37.665Z,0.93
2022-09-20T15:41:04.715Z,0.83
2022-09-20T15:43:31.601Z,1.10
2022-09-20T15:46:02.012Z,0.80
2022-09-20T15:48:30.719Z,1.40
2022-09-20T15:51:02.163Z,0.90
2022-09-20T15:53:31.712Z,1.13
2022-09-20T15:56:02.576Z,0.97
2022-09-20T15:58:36.137Z,0.90
2022-09-20T16:01:07.245Z,1.37
2022-09-20T16:03:36.082Z,1.10
2022-09-20T16:06:08.600Z,0.70
2022-09-20T16:08:37.630Z,0.87
2022-09-20T16:11:05.786Z,0.80
2022-09-20T16:13:32.593Z,2.13
2022-09-20T16:16:01.209Z,1.43
2022-09-20T16:18:47.861Z,0.90
2022-09-20T16:21:17.123Z,0.93
2022-09-20T16:23:50.800Z,0.90
2022-09-20T16:26:18.572Z,1.10
2022-09-20T16:28:47.767Z,1.00
2022-09-20T16:31:32.673Z,0.80
2022-09-20T16:34:00.365Z,0.90
2022-09-20T16:36:27.699Z,0.83
2022-09-20T16:38:58.438Z,0.97
2022-09-20T16:41:26.246Z,0.83
2022-09-20T16:43:53.723Z,1.53
2022-09-20T16:46:27.385Z,0.90
2022-09-20T16:48:55.566Z,0.77
2022-09-20T16:51:26.422Z,0.70
2022-09-20T16:53:54.870Z,1.10
2022-09-20T16:56:36.301Z,1.00
2022-09-20T16:59:04.417Z,0.80
2022-09-20T17:01:31.977Z,0.67
2022-09-20T17:03:59.131Z,0.90
2022-09-20T17:06:28.555Z,0.90
2022-09-20T17:08:59.039Z,0.93
2022-09-20T17:11:28.357Z,0.70
2022-09-20T17:13:56.329Z,0.87
2022-09-20T17:16:25.619Z,0.90
2022-09-20T17:18:54.367Z,0.80
2022-09-20T17:21:22.387Z,0.80
2022-09-20T17:23:54.954Z,2.00
2022-09-20T17:26:28.629Z,1.30
2022-09-20T17:28:56.318Z,1.83
2022-09-20T17:31:29.284Z,1.03
2022-09-20T17:34:00.049Z,4.80
2022-09-20T17:36:32.740Z,4.27
2022-09-20T17:39:04.115Z,7.47
2022-09-20T17:41:32.766Z,12.87
2022-09-20T17:44:02.644Z,7.23
2022-09-20T17:46:35.486Z,5.90
2022-09-20T17:49:05.517Z,6.23
2022-09-20T17:51:43.794Z,3.70
2022-09-20T17:54:14.228Z,1.93
2022-09-20T17:56:43.514Z,2.60
2022-09-20T17:59:11.573Z,2.30
2022-09-20T18:01:39.908Z,1.60
2022-09-20T18:04:07.704Z,3.40
2022-09-20T18:06:37.462Z,4.17
2022-09-20T18:09:09.117Z,1.93
2022-09-20T18:11:42.657Z,1.37
2022-09-20T18:14:13.384Z,1.83
2022-09-20T18:16:40.749Z,1.60
2022-09-20T18:19:09.011Z,2.70
2022-09-20T18:21:37.325Z,2.00
2022-09-20T18:24:09.135Z,1.60
2022-09-20T18:26:36.914Z,1.60
2022-09-20T18:29:09.419Z,1.60
2022-09-20T18:31:43.151Z,1.97
2022-09-20T18:34:17.920Z,1.50
2022-09-20T18:36:55.064Z,2.00
2022-09-20T18:39:23.230Z,1.73
2022-09-20T18:41:50.640Z,1.63
2022-09-20T18:44:18.627Z,1.80
2022-09-20T18:46:46.636Z,2.10
2022-09-20T18:49:15.064Z,1.77
2022-09-20T18:51:43.303Z,6.73
2022-09-20T18:54:11.047Z,3.57
2022-09-20T18:56:39.989Z,3.80
2022-09-20T18:59:18.738Z,4.00
2022-09-20T19:01:54.011Z,2.53
2022-09-20T19:04:41.713Z,2.63
2022-09-20T19:07:27.149Z,2.27
2022-09-20T19:10:06.100Z,6.50
2022-09-20T19:13:02.144Z,7.57
2022-09-20T19:15:53.273Z,1.90
2022-09-20T19:18:44.354Z,2.60
2022-09-20T19:21:13.878Z,2.33
2022-09-20T19:24:05.306Z,2.30
2022-09-20T19:26:38.057Z,2.53
2022-09-20T19:29:20.686Z,2.60
2022-09-20T19:31:49.970Z,18.53
2022-09-20T19:34:22.670Z,4.33
2022-09-20T19:37:21.482Z,6.50
2022-09-20T19:40:04.480Z,2.50
2022-09-20T19:43:03.158Z,2.30
2022-09-20T19:45:55.693Z,2.70
2022-09-20T19:48:39.005Z,2.60
2022-09-20T19:51:13.865Z,2.60
2022-09-20T19:53:41.027Z,3.20
2022-09-20T19:56:29.592Z,7.20
2022-09-20T19:58:56.881Z,2.10
2022-09-20T20:01:25.429Z,3.23
2022-09-20T20:03:53.736Z,2.97
2022-09-20T20:06:27.070Z,2.33
2022-09-20T20:09:18.594Z,2.50
2022-09-20T20:12:14.853Z,2.43
2022-09-20T20:15:07.814Z,1.87
2022-09-20T20:17:43.327Z,2.10
2022-09-20T20:20:16.680Z,2.33
2022-09-20T20:22:56.826Z,2.60
2022-09-20T20:26:28.047Z,3.20
2022-09-20T20:28:54.830Z,13.40
2022-09-20T20:31:22.821Z,3.80
2022-09-20T20:33:50.011Z,2.37
2022-09-20T20:36:17.267Z,2.27
2022-09-20T20:38:49.686Z,4.43
2022-09-20T20:41:21.246Z,3.37
2022-09-20T20:43:48.493Z,2.50
2022-09-20T20:46:20.322Z,6.40
2022-09-20T20:48:50.368Z,10.43
2022-09-20T20:51:19.847Z,9.83
2022-09-20T20:53:49.566Z,8.20
2022-09-20T20:56:21.988Z,4.00
2022-09-20T20:58:49.674Z,5.50
2022-09-20T21:01:28.590Z,5.80
2022-09-20T21:03:56.118Z,4.80
2022-09-20T21:06:27.586Z,5.57
2022-09-20T21:08:54.465Z,4.27
2022-09-20T21:11:27.414Z,5.13
2022-09-20T21:13:57.092Z,4.27
2022-09-20T21:16:26.548Z,4.20
2022-09-20T21:18:53.274Z,3.27
2022-09-20T21:21:25.934Z,3.53
2022-09-20T21:23:55.085Z,4.03
2022-09-20T21:26:23.374Z,3.87
2022-09-20T21:28:54.995Z,3.50
2022-09-20T21:31:23.202Z,4.03
2022-09-20T21:33:50.220Z,4.30
2022-09-20T21:36:21.006Z,4.03
2022-09-20T21:38:47.762Z,3.87
2022-09-20T21:41:22.675Z,3.80
2022-09-20T21:43:53.216Z,3.17
2022-09-20T21:46:22.057Z,4.30
2022-09-20T21:48:50.513Z,4.50
2022-09-20T21:51:20.346Z,3.97
2022-09-20T21:53:48.343Z,3.83
2022-09-20T21:56:17.494Z,20.23
2022-09-20T21:58:45.942Z,4.27
2022-09-20T22:01:18.417Z,4.60
2022-09-20T22:03:51.772Z,4.27
2022-09-20T22:06:20.825Z,4.17
2022-09-20T22:08:52.987Z,4.50
2022-09-20T22:11:21.883Z,3.93
2022-09-20T22:13:50.675Z,4.33
2022-09-20T22:16:34.805Z,4.37
2022-09-20T22:19:01.670Z,4.10
2022-09-20T22:21:37.100Z,4.00
2022-09-20T22:24:07.101Z,4.70
2022-09-20T22:26:40.319Z,4.47
2022-09-20T22:29:07.749Z,4.23
2022-09-20T22:31:37.067Z,4.00
2022-09-20T22:34:06.436Z,4.33
2022-09-20T22:36:35.444Z,4.60
2022-09-20T22:39:03.670Z,4.47
2022-09-20T22:41:30.493Z,4.37
2022-09-20T22:43:57.247Z,4.77
2022-09-20T22:46:26.713Z,4.23
2022-09-20T22:48:53.528Z,4.70
2022-09-20T22:51:25.674Z,4.57
2022-09-20T22:53:53.125Z,5.50
2022-09-20T22:56:24.971Z,5.00
2022-09-20T22:58:54.248Z,5.23
2022-09-20T23:01:23.666Z,4.00
2022-09-20T23:03:58.890Z,4.80
2022-09-20T23:06:31.678Z,4.70
2022-09-20T23:09:00.828Z,4.40
2022-09-20T23:11:28.749Z,3.87
2022-09-20T23:14:00.746Z,3.80
2022-09-20T23:16:30.431Z,4.33
2022-09-20T23:18:58.981Z,4.10
2022-09-20T23:21:26.382Z,4.40
2022-09-20T23:24:00.990Z,5.10
2022-09-20T23:26:32.279Z,4.90
2022-09-20T23:29:00.068Z,5.40
2022-09-20T23:31:28.079Z,5.83
2022-09-20T23:34:02.724Z,4.80
2022-09-20T23:36:31.494Z,4.83
2022-09-20T23:38:58.516Z,5.07
2022-09-20T23:41:26.750Z,5.43
2022-09-20T23:43:53.613Z,5.60
2022-09-20T23:46:22.289Z,5.20
2022-09-20T23:48:50.439Z,5.50
2022-09-20T23:51:20.403Z,4.00
2022-09-20T23:53:47.464Z,5.50
2022-09-20T23:56:15.084Z,4.10
2022-09-20T23:58:43.920Z,4.30
